Time;durP1;ratioP1;P1;durP2;ratioP2;P2;SDS_P1;SDS_P2;PMS_P1;PMS_P2;Temp;Humidity;BMP_temperature;BMP_pressure;BME280_temperature;BME280_humidity;BME280_pressure;Samples;Min_cycle;Max_cycle;Signal;HPM_P1;HPM_P2
2023/03/09 00:00:46;;;;;;;6.53;1.30;;;;;;;;;;5088464;28;20036;-59
2023/03/09 00:03:15;;;;;;;2.50;1.33;;;;;;;;;;5086115;28;20534;-58
2023/03/09 00:05:42;;;;;;;2.88;1.20;;;;;;;;;;5087413;28;20041;-58
2023/03/09 00:08:08;;;;;;;4.15;1.40;;;;;;;;;;5086082;28;20487;-58
2023/03/09 00:10:34;;;;;;;5.00;1.58;;;;;;;;;;5086807;28;20044;-57
2023/03/09 00:13:01;;;;;;;4.93;1.42;;;;;;;;;;5088030;28;20525;-58
2023/03/09 00:15:27;;;;;;;3.13;1.95;;;;;;;;;;5086683;28;20056;-58
2023/03/09 00:17:53;;;;;;;4.65;1.65;;;;;;;;;;5085536;28;20052;-58
2023/03/09 00:20:19;;;;;;;1.17;1.05;;;;;;;;;;5088648;28;20513;-57
2023/03/09 00:22:49;;;;;;;6.53;1.50;;;;;;;;;;5085318;28;20036;-58
2023/03/09 00:25:16;;;;;;;2.47;1.17;;;;;;;;;;5088712;28;20173;-58
2023/03/09 00:27:42;;;;;;;3.03;1.38;;;;;;;;;;5087772;28;20082;-57
2023/03/09 00:30:09;;;;;;;1.52;1.13;;;;;;;;;;5087704;28;20063;-57
2023/03/09 00:32:35;;;;;;;6.20;1.60;;;;;;;;;;5087351;28;20971;-57
2023/03/09 00:35:01;;;;;;;5.18;1.30;;;;;;;;;;5087805;28;20083;-58
2023/03/09 00:37:27;;;;;;;5.18;1.90;;;;;;;;;;5086358;28;20064;-58
2023/03/09 00:39:53;;;;;;;3.63;1.73;;;;;;;;;;5086933;28;20860;-58
2023/03/09 00:42:20;;;;;;;7.25;3.00;;;;;;;;;;5082702;28;20039;-57
2023/03/09 00:44:46;;;;;;;4.90;1.85;;;;;;;;;;5084965;28;20524;-57
2023/03/09 00:47:12;;;;;;;9.45;2.58;;;;;;;;;;5084517;28;20040;-58
2023/03/09 00:49:38;;;;;;;9.40;3.08;;;;;;;;;;5085386;28;20412;-58
2023/03/09 00:52:05;;;;;;;9.80;1.42;;;;;;;;;;5082694;28;20139;-57
2023/03/09 00:54:31;;;;;;;10.77;2.97;;;;;;;;;;5083252;28;20720;-57
2023/03/09 00:56:57;;;;;;;3.92;1.92;;;;;;;;;;5084009;28;20525;-58
2023/03/09 00:59:23;;;;;;;9.38;3.25;;;;;;;;;;5085524;28;20964;-58
2023/03/09 01:01:49;;;;;;;6.13;1.30;;;;;;;;;;5083576;28;20048;-58
2023/03/09 01:04:15;;;;;;;6.50;1.95;;;;;;;;;;5085194;28;20048;-57
2023/03/09 01:06:41;;;;;;;8.80;2.28;;;;;;;;;;5083718;28;20124;-56
2023/03/09 01:09:07;;;;;;;8.27;2.70;;;;;;;;;;5082229;28;20051;-57
2023/03/09 01:11:33;;;;;;;12.70;3.22;;;;;;;;;;5083654;28;20514;-56
2023/03/09 01:13:59;;;;;;;16.75;3.83;;;;;;;;;;5083851;28;20079;-57
2023/03/09 01:16:26;;;;;;;6.72;2.30;;;;;;;;;;5082001;28;20076;-57
2023/03/09 01:18:52;;;;;;;6.47;2.03;;;;;;;;;;5081223;28;20044;-57
2023/03/09 01:21:18;;;;;;;10.43;1.85;;;;;;;;;;5081358;28;21309;-56
2023/03/09 01:23:44;;;;;;;11.60;3.40;;;;;;;;;;5077978;28;20298;-56
2023/03/09 01:26:11;;;;;;;7.15;3.38;;;;;;;;;;5083267;28;20036;-57
2023/03/09 01:28:37;;;;;;;6.53;2.78;;;;;;;;;;5083733;28;20048;-56
2023/03/09 01:31:10;;;;;;;9.50;3.40;;;;;;;;;;5079753;28;20119;-56
2023/03/09 01:33:37;;;;;;;8.73;2.50;;;;;;;;;;5081123;28;20051;-57
2023/03/09 01:36:04;;;;;;;7.85;1.85;;;;;;;;;;5081282;28;20033;-57
2023/03/09 01:38:30;;;;;;;9.93;2.13;;;;;;;;;;5081524;28;20055;-57
2023/03/09 01:40:56;;;;;;;7.85;1.65;;;;;;;;;;5082426;28;20040;-57
2023/03/09 01:43:31;;;;;;;11.65;2.78;;;;;;;;;;5084659;28;20088;-57
2023/03/09 01:46:15;;;;;;;10.57;3.30;;;;;;;;;;5081940;28;20033;-57
2023/03/09 01:48:42;;;;;;;9.10;3.10;;;;;;;;;;5081721;28;20044;-57
2023/03/09 01:51:08;;;;;;;11.85;3.78;;;;;;;;;;5081965;28;20620;-57
2023/03/09 01:53:34;;;;;;;9.50;2.22;;;;;;;;;;5082571;28;20165;-57
2023/03/09 01:56:02;;;;;;;9.82;2.95;;;;;;;;;;5082116;28;20123;-57
2023/03/09 01:58:29;;;;;;;16.38;3.28;;;;;;;;;;5083601;28;20127;-57
2023/03/09 02:00:56;;;;;;;5.70;2.47;;;;;;;;;;5083926;28;20075;-57
2023/03/09 02:03:24;;;;;;;20.90;3.30;;;;;;;;;;5081367;28;21197;-56
2023/03/09 02:05:52;;;;;;;15.05;3.63;;;;;;;;;;5082303;28;20044;-57
2023/03/09 02:08:19;;;;;;;8.63;4.45;;;;;;;;;;5080499;28;20043;-57
2023/03/09 02:10:58;;;;;;;9.52;2.50;;;;;;;;;;5081335;28;20147;-57
2023/03/09 02:13:30;;;;;;;13.85;2.85;;;;;;;;;;5083276;28;20181;-56
2023/03/09 02:15:56;;;;;;;11.93;4.45;;;;;;;;;;5080423;28;20056;-57
2023/03/09 02:18:24;;;;;;;10.77;2.60;;;;;;;;;;5081207;27;20040;-57
2023/03/09 02:20:55;;;;;;;20.30;2.95;;;;;;;;;;5080876;28;20048;-57
2023/03/09 02:23:21;;;;;;;12.10;3.13;;;;;;;;;;5081831;28;20032;-57
2023/03/09 02:25:50;;;;;;;12.80;3.60;;;;;;;;;;5082965;28;20051;-57
2023/03/09 02:28:17;;;;;;;11.65;3.65;;;;;;;;;;5083221;28;20071;-56
2023/03/09 02:30:45;;;;;;;10.43;3.00;;;;;;;;;;5079403;28;20048;-57
2023/03/09 02:33:25;;;;;;;11.50;2.35;;;;;;;;;;5079673;28;20055;-57
2023/03/09 02:35:51;;;;;;;14.00;3.30;;;;;;;;;;5080990;28;20048;-56
2023/03/09 02:38:17;;;;;;;5.45;2.20;;;;;;;;;;5083415;28;20127;-57
2023/03/09 02:40:43;;;;;;;11.15;3.33;;;;;;;;;;5078235;28;20041;-56
2023/03/09 02:43:10;;;;;;;10.38;3.15;;;;;;;;;;5079838;28;20121;-57
2023/03/09 02:45:36;;;;;;;7.40;2.75;;;;;;;;;;5081234;28;20043;-57
2023/03/09 02:48:02;;;;;;;14.82;4.50;;;;;;;;;;5080290;28;20652;-56
2023/03/09 02:50:28;;;;;;;11.10;3.03;;;;;;;;;;5077496;28;20044;-57
2023/03/09 02:52:54;;;;;;;10.60;2.88;;;;;;;;;;5080140;28;20482;-57
2023/03/09 02:55:21;;;;;;;10.57;2.90;;;;;;;;;;5080429;28;20046;-57
2023/03/09 02:57:47;;;;;;;12.10;2.50;;;;;;;;;;5078981;28;20036;-57
2023/03/09 03:00:14;;;;;;;8.93;2.92;;;;;;;;;;5080203;28;20079;-57
2023/03/09 03:02:40;;;;;;;8.85;2.88;;;;;;;;;;5080002;28;20545;-61
2023/03/09 03:05:07;;;;;;;12.57;2.50;;;;;;;;;;5079813;28;20032;-57
2023/03/09 03:07:33;;;;;;;8.85;3.17;;;;;;;;;;5081185;28;20044;-57
2023/03/09 03:09:59;;;;;;;10.05;2.72;;;;;;;;;;5076279;28;20754;-57
2023/03/09 03:12:25;;;;;;;13.63;3.33;;;;;;;;;;5079483;28;20040;-57
2023/03/09 03:14:51;;;;;;;11.18;3.15;;;;;;;;;;5081038;28;20051;-57
2023/03/09 03:17:17;;;;;;;20.45;3.80;;;;;;;;;;5081441;28;20040;-56
2023/03/09 03:19:43;;;;;;;16.05;1.90;;;;;;;;;;5078641;28;20139;-57
2023/03/09 03:22:09;;;;;;;10.40;3.33;;;;;;;;;;5077468;28;21068;-57
2023/03/09 03:24:36;;;;;;;18.23;4.85;;;;;;;;;;5081382;28;20044;-56
2023/03/09 03:27:02;;;;;;;15.52;3.08;;;;;;;;;;5078495;28;20529;-57
2023/03/09 03:29:28;;;;;;;11.02;4.38;;;;;;;;;;5080867;28;20450;-57
2023/03/09 03:31:54;;;;;;;12.05;5.45;;;;;;;;;;5081492;28;20040;-57
2023/03/09 03:34:20;;;;;;;14.77;4.13;;;;;;;;;;5079089;28;20110;-56
2023/03/09 03:36:46;;;;;;;8.57;3.88;;;;;;;;;;5080756;28;20068;-57
2023/03/09 03:39:12;;;;;;;15.98;3.53;;;;;;;;;;5078648;28;20052;-57
2023/03/09 03:41:38;;;;;;;17.70;4.25;;;;;;;;;;5079528;28;20114;-57
2023/03/09 03:44:04;;;;;;;14.98;4.50;;;;;;;;;;5078843;28;20580;-57
2023/03/09 03:46:30;;;;;;;13.30;2.72;;;;;;;;;;5078743;28;20527;-57
2023/03/09 03:48:57;;;;;;;12.93;3.42;;;;;;;;;;5079589;28;20533;-57
2023/03/09 03:51:23;;;;;;;15.48;5.68;;;;;;;;;;5078730;28;20045;-57
2023/03/09 03:53:49;;;;;;;11.88;4.68;;;;;;;;;;5081413;28;20797;-57
2023/03/09 03:56:15;;;;;;;21.83;4.43;;;;;;;;;;5079307;28;20048;-57
2023/03/09 03:58:41;;;;;;;18.00;3.15;;;;;;;;;;5080448;28;20655;-57
2023/03/09 04:01:07;;;;;;;17.58;3.50;;;;;;;;;;5078572;28;20045;-57
2023/03/09 04:03:34;;;;;;;13.48;4.88;;;;;;;;;;5079826;28;20104;-57
2023/03/09 04:06:02;;;;;;;15.02;4.10;;;;;;;;;;5081418;28;20048;-57
2023/03/09 04:08:28;;;;;;;11.85;3.08;;;;;;;;;;5079669;28;20124;-57
2023/03/09 04:10:54;;;;;;;15.30;4.63;;;;;;;;;;5081722;28;20109;-56
2023/03/09 04:13:20;;;;;;;19.67;4.32;;;;;;;;;;5080060;28;20429;-57
2023/03/09 04:15:46;;;;;;;12.13;3.67;;;;;;;;;;5079179;28;20082;-57
2023/03/09 04:18:13;;;;;;;13.50;3.67;;;;;;;;;;5085260;28;20515;-57
2023/03/09 04:20:39;;;;;;;17.58;4.60;;;;;;;;;;5082906;28;20431;-57
2023/03/09 04:23:06;;;;;;;7.25;2.08;;;;;;;;;;5083225;28;20041;-57
2023/03/09 04:25:32;;;;;;;15.45;4.10;;;;;;;;;;5084143;28;20094;-57
2023/03/09 04:27:58;;;;;;;22.73;3.85;;;;;;;;;;5085154;28;20102;-57
2023/03/09 04:30:24;;;;;;;15.57;3.80;;;;;;;;;;5084381;28;20047;-57
2023/03/09 04:32:51;;;;;;;13.70;3.08;;;;;;;;;;5084506;28;20067;-57
2023/03/09 04:35:17;;;;;;;12.43;3.85;;;;;;;;;;5083651;27;20063;-57
2023/03/09 04:37:44;;;;;;;19.05;4.32;;;;;;;;;;5085917;28;20044;-57
2023/03/09 04:40:10;;;;;;;14.57;4.40;;;;;;;;;;5083245;28;20040;-57
2023/03/09 04:42:36;;;;;;;11.32;3.10;;;;;;;;;;5083220;28;20037;-57
2023/03/09 04:45:03;;;;;;;9.63;3.90;;;;;;;;;;5082196;28;20078;-57
2023/03/09 04:47:29;;;;;;;19.63;4.82;;;;;;;;;;5084738;28;20051;-56
2023/03/09 04:49:55;;;;;;;15.52;3.95;;;;;;;;;;5083450;28;20040;-57
2023/03/09 04:52:22;;;;;;;13.68;4.47;;;;;;;;;;5080743;28;20039;-57
2023/03/09 04:54:48;;;;;;;15.00;5.32;;;;;;;;;;5084384;27;20068;-57
2023/03/09 04:57:14;;;;;;;11.60;3.22;;;;;;;;;;5083086;27;20059;-57
2023/03/09 04:59:41;;;;;;;19.67;4.68;;;;;;;;;;5082305;28;20033;-56
2023/03/09 05:02:07;;;;;;;20.45;5.55;;;;;;;;;;5083966;28;20039;-57
2023/03/09 05:04:33;;;;;;;13.60;3.17;;;;;;;;;;5083528;28;20538;-57
2023/03/09 05:07:00;;;;;;;10.20;3.47;;;;;;;;;;5083736;28;20048;-56
2023/03/09 05:09:26;;;;;;;16.98;4.20;;;;;;;;;;5084479;28;20367;-56
2023/03/09 05:11:52;;;;;;;13.05;2.95;;;;;;;;;;5084361;28;20036;-57
2023/03/09 05:14:21;;;;;;;11.52;4.65;;;;;;;;;;5084161;28;20076;-57
2023/03/09 05:16:51;;;;;;;15.43;3.30;;;;;;;;;;5083596;28;20129;-56
2023/03/09 05:19:19;;;;;;;16.33;4.35;;;;;;;;;;5083637;28;20053;-57
2023/03/09 05:21:46;;;;;;;12.40;3.65;;;;;;;;;;5084691;28;20111;-57
2023/03/09 05:24:12;;;;;;;17.30;4.35;;;;;;;;;;5079986;28;20803;-57
2023/03/09 05:26:38;;;;;;;15.65;3.15;;;;;;;;;;5083914;28;20044;-57
2023/03/09 05:29:04;;;;;;;12.05;2.95;;;;;;;;;;5082357;28;20049;-56
2023/03/09 05:31:30;;;;;;;18.65;3.63;;;;;;;;;;5084965;28;20040;-56
2023/03/09 05:33:56;;;;;;;13.73;4.25;;;;;;;;;;5083462;28;20040;-56
2023/03/09 05:36:24;;;;;;;12.65;4.40;;;;;;;;;;5085601;28;20052;-56
2023/03/09 05:38:50;;;;;;;16.77;5.22;;;;;;;;;;5083409;28;20036;-56
2023/03/09 05:41:17;;;;;;;20.50;4.45;;;;;;;;;;5083191;28;20036;-57
2023/03/09 05:43:43;;;;;;;22.05;5.93;;;;;;;;;;5082707;28;20047;-57
2023/03/09 05:46:10;;;;;;;17.42;6.10;;;;;;;;;;5079821;28;20045;-57
2023/03/09 05:48:37;;;;;;;18.88;4.93;;;;;;;;;;5082401;28;20047;-57
2023/03/09 05:51:04;;;;;;;23.75;6.05;;;;;;;;;;5078973;28;20106;-57
2023/03/09 05:53:30;;;;;;;29.65;4.63;;;;;;;;;;5076116;28;20545;-57
2023/03/09 05:55:57;;;;;;;10.93;3.63;;;;;;;;;;5077053;28;20470;-56
2023/03/09 05:58:23;;;;;;;31.05;5.68;;;;;;;;;;5078443;27;20157;-57
2023/03/09 06:00:49;;;;;;;20.63;4.78;;;;;;;;;;5077595;28;20048;-57
2023/03/09 06:03:16;;;;;;;15.50;5.22;;;;;;;;;;5081201;28;21915;-56
2023/03/09 06:05:42;;;;;;;27.73;5.28;;;;;;;;;;5077902;28;20123;-57
2023/03/09 06:08:08;;;;;;;14.32;3.85;;;;;;;;;;5076058;28;20036;-57
2023/03/09 06:10:34;;;;;;;17.17;5.15;;;;;;;;;;5083604;27;20040;-57
2023/03/09 06:13:00;;;;;;;18.15;6.05;;;;;;;;;;5083074;28;20530;-56
2023/03/09 06:15:26;;;;;;;24.15;5.18;;;;;;;;;;5080422;28;20061;-57
2023/03/09 06:17:53;;;;;;;31.80;5.78;;;;;;;;;;5081848;28;20090;-57
2023/03/09 06:20:19;;;;;;;18.23;4.20;;;;;;;;;;5082966;28;20051;-57
2023/03/09 06:22:45;;;;;;;17.92;5.68;;;;;;;;;;5081700;28;20042;-57
2023/03/09 06:25:11;;;;;;;19.98;5.10;;;;;;;;;;5080337;28;20041;-57
2023/03/09 06:27:38;;;;;;;17.08;3.78;;;;;;;;;;5082563;28;20047;-57
2023/03/09 06:30:04;;;;;;;21.23;5.18;;;;;;;;;;5080503;28;20044;-57
2023/03/09 06:32:34;;;;;;;16.17;4.00;;;;;;;;;;5079978;28;20589;-57
2023/03/09 06:35:00;;;;;;;20.38;4.30;;;;;;;;;;5081005;28;20083;-57
2023/03/09 06:37:26;;;;;;;19.23;5.80;;;;;;;;;;5080200;28;20680;-56
2023/03/09 06:39:52;;;;;;;12.25;4.65;;;;;;;;;;5080511;28;20036;-56
2023/03/09 06:42:19;;;;;;;22.27;4.75;;;;;;;;;;5079462;28;20071;-57
2023/03/09 06:44:45;;;;;;;19.13;4.22;;;;;;;;;;5082538;27;20037;-57
2023/03/09 06:47:12;;;;;;;16.45;3.95;;;;;;;;;;5082274;28;20037;-56
2023/03/09 06:49:38;;;;;;;24.48;6.03;;;;;;;;;;5075544;28;20041;-57
2023/03/09 06:52:05;;;;;;;15.75;3.75;;;;;;;;;;5075009;27;20159;-57
2023/03/09 06:54:31;;;;;;;16.35;5.32;;;;;;;;;;5080992;28;21221;-57
2023/03/09 06:56:57;;;;;;;14.05;4.78;;;;;;;;;;5082000;28;20040;-57
2023/03/09 06:59:23;;;;;;;18.08;4.63;;;;;;;;;;5083652;28;20094;-57
2023/03/09 07:01:49;;;;;;;11.20;3.80;;;;;;;;;;5078005;28;20041;-57
2023/03/09 07:04:17;;;;;;;23.17;4.68;;;;;;;;;;5079617;28;20093;-57
2023/03/09 07:06:43;;;;;;;28.65;8.98;;;;;;;;;;5081929;28;20049;-57
2023/03/09 07:09:09;;;;;;;21.92;3.90;;;;;;;;;;5076808;27;20036;-56
2023/03/09 07:11:35;;;;;;;16.13;5.35;;;;;;;;;;5076538;28;20047;-56
2023/03/09 07:14:01;;;;;;;18.75;6.15;;;;;;;;;;5077583;28;20048;-56
2023/03/09 07:16:27;;;;;;;15.88;4.50;;;;;;;;;;5077530;28;20053;-57
2023/03/09 07:18:55;;;;;;;17.38;4.68;;;;;;;;;;5083820;28;20052;-56
2023/03/09 07:21:21;;;;;;;12.68;4.22;;;;;;;;;;5081269;28;20045;-56
2023/03/09 07:23:47;;;;;;;21.23;7.82;;;;;;;;;;5076165;28;20157;-57
2023/03/09 07:26:13;;;;;;;25.52;6.93;;;;;;;;;;5075620;28;20041;-56
2023/03/09 07:28:39;;;;;;;23.77;5.15;;;;;;;;;;5078924;28;20032;-57
2023/03/09 07:31:10;;;;;;;17.55;4.35;;;;;;;;;;5076411;28;20087;-57
2023/03/09 07:33:36;;;;;;;15.73;6.60;;;;;;;;;;5076880;28;20101;-58
2023/03/09 07:36:06;;;;;;;23.27;7.40;;;;;;;;;;5078488;28;20040;-57
2023/03/09 07:38:33;;;;;;;21.55;6.03;;;;;;;;;;5074690;28;20043;-57
2023/03/09 07:41:00;;;;;;;20.38;6.15;;;;;;;;;;5078451;28;20040;-57
2023/03/09 07:43:26;;;;;;;28.08;5.55;;;;;;;;;;5075483;28;20044;-57
2023/03/09 07:45:52;;;;;;;31.75;9.52;;;;;;;;;;5079763;27;20053;-57
2023/03/09 07:48:19;;;;;;;22.00;4.75;;;;;;;;;;5072965;27;20047;-57
2023/03/09 07:50:45;;;;;;;17.15;5.72;;;;;;;;;;5072663;28;20522;-57
2023/03/09 07:53:11;;;;;;;21.85;7.10;;;;;;;;;;5084674;28;20048;-57
2023/03/09 07:55:38;;;;;;;31.27;8.15;;;;;;;;;;5086195;28;20048;-57
2023/03/09 07:58:04;;;;;;;23.92;6.85;;;;;;;;;;5086225;28;20119;-57
2023/03/09 08:00:32;;;;;;;20.08;6.47;;;;;;;;;;5087780;28;20040;-57
2023/03/09 08:02:58;;;;;;;23.98;6.68;;;;;;;;;;5085225;28;20051;-57
2023/03/09 08:05:24;;;;;;;24.08;6.30;;;;;;;;;;5088005;27;20037;-57
2023/03/09 08:07:51;;;;;;;25.25;6.07;;;;;;;;;;5085046;28;20101;-57
2023/03/09 08:10:18;;;;;;;24.30;6.88;;;;;;;;;;5086558;28;20115;-57
2023/03/09 08:12:51;;;;;;;23.48;6.13;;;;;;;;;;5085485;28;20079;-56
2023/03/09 08:15:19;;;;;;;32.08;6.88;;;;;;;;;;5084783;28;20584;-57
2023/03/09 08:17:45;;;;;;;22.30;6.55;;;;;;;;;;5086004;28;20041;-57
2023/03/09 08:20:11;;;;;;;22.23;5.13;;;;;;;;;;5087820;28;20041;-57
2023/03/09 08:22:37;;;;;;;26.95;8.60;;;;;;;;;;5085517;28;20040;-57
2023/03/09 08:25:04;;;;;;;26.00;8.07;;;;;;;;;;5085030;27;20537;-57
2023/03/09 08:27:31;;;;;;;22.15;5.45;;;;;;;;;;5086595;28;20040;-58
2023/03/09 08:29:57;;;;;;;27.38;6.10;;;;;;;;;;5086674;28;20052;-57
2023/03/09 08:32:23;;;;;;;32.00;8.80;;;;;;;;;;5085570;28;20040;-57
2023/03/09 08:34:49;;;;;;;29.85;5.93;;;;;;;;;;5086548;28;20098;-57
2023/03/09 08:37:15;;;;;;;25.80;6.57;;;;;;;;;;5086172;28;20045;-57
2023/03/09 08:39:42;;;;;;;25.00;7.22;;;;;;;;;;5085877;28;20040;-57
2023/03/09 08:42:08;;;;;;;21.73;5.90;;;;;;;;;;5085484;28;20044;-57
2023/03/09 08:44:34;;;;;;;19.35;7.22;;;;;;;;;;5087262;28;20044;-57
2023/03/09 08:47:00;;;;;;;17.70;6.05;;;;;;;;;;5085986;28;20049;-57
2023/03/09 08:49:26;;;;;;;35.75;8.65;;;;;;;;;;5086777;28;20089;-57
2023/03/09 08:51:52;;;;;;;30.33;10.35;;;;;;;;;;5085166;28;20048;-57
2023/03/09 08:54:18;;;;;;;22.30;6.68;;;;;;;;;;5085699;28;20044;-57
2023/03/09 08:56:44;;;;;;;27.92;5.85;;;;;;;;;;5085660;28;20560;-57
2023/03/09 08:59:10;;;;;;;34.15;5.57;;;;;;;;;;5086824;28;20040;-57
2023/03/09 09:01:36;;;;;;;22.10;8.13;;;;;;;;;;5081683;28;20996;-58
2023/03/09 09:04:03;;;;;;;35.65;7.05;;;;;;;;;;5083659;28;20078;-58
2023/03/09 09:06:29;;;;;;;30.15;7.30;;;;;;;;;;5085359;28;20028;-58
2023/03/09 09:08:55;;;;;;;38.80;8.30;;;;;;;;;;5086381;28;20094;-57
2023/03/09 09:11:21;;;;;;;24.70;6.85;;;;;;;;;;5086556;28;20043;-58
2023/03/09 09:13:47;;;;;;;27.38;6.93;;;;;;;;;;5087090;28;20060;-57
2023/03/09 09:16:15;;;;;;;22.55;7.07;;;;;;;;;;5084912;28;20048;-57
2023/03/09 09:18:41;;;;;;;28.40;6.53;;;;;;;;;;5085051;28;20082;-58
2023/03/09 09:21:08;;;;;;;28.88;5.40;;;;;;;;;;5086330;28;20049;-57
2023/03/09 09:23:35;;;;;;;26.20;8.73;;;;;;;;;;5084185;28;20096;-57
2023/03/09 09:26:02;;;;;;;23.08;6.60;;;;;;;;;;5085546;28;20957;-58
2023/03/09 09:28:28;;;;;;;27.02;5.10;;;;;;;;;;5085156;28;20044;-58
2023/03/09 09:31:01;;;;;;;16.75;6.55;;;;;;;;;;5084410;28;20131;-57
2023/03/09 09:33:30;;;;;;;20.77;5.63;;;;;;;;;;5086496;27;20037;-58
2023/03/09 09:35:57;;;;;;;21.00;6.57;;;;;;;;;;5085671;28;20643;-58
2023/03/09 09:38:23;;;;;;;21.90;5.60;;;;;;;;;;5084547;28;20036;-57
2023/03/09 09:40:49;;;;;;;19.90;5.35;;;;;;;;;;5086365;28;20050;-58
2023/03/09 09:43:16;;;;;;;17.58;3.38;;;;;;;;;;5085807;28;20044;-57
2023/03/09 09:45:43;;;;;;;28.92;4.95;;;;;;;;;;5084509;28;20039;-57
2023/03/09 09:48:15;;;;;;;18.70;5.22;;;;;;;;;;5084786;28;20042;-58
2023/03/09 09:50:56;;;;;;;25.63;6.38;;;;;;;;;;5085359;28;20552;-57
2023/03/09 09:53:46;;;;;;;19.83;5.35;;;;;;;;;;5085485;28;20070;-58
2023/03/09 09:56:15;;;;;;;27.08;6.05;;;;;;;;;;5081619;28;20037;-58
2023/03/09 09:58:44;;;;;;;26.48;5.88;;;;;;;;;;5085522;28;20045;-58
2023/03/09 10:01:30;;;;;;;26.08;5.57;;;;;;;;;;5083709;28;20072;-57
2023/03/09 10:03:59;;;;;;;32.90;6.40;;;;;;;;;;5085064;28;20036;-57
2023/03/09 10:06:26;;;;;;;27.02;6.68;;;;;;;;;;5084129;28;20049;-57
2023/03/09 10:08:58;;;;;;;22.05;5.22;;;;;;;;;;5084113;28;20198;-57
2023/03/09 10:11:30;;;;;;;16.13;4.72;;;;;;;;;;5085048;28;20079;-58
2023/03/09 10:13:56;;;;;;;25.88;5.72;;;;;;;;;;5085759;28;20083;-58
2023/03/09 10:16:25;;;;;;;22.83;6.43;;;;;;;;;;5083670;28;20083;-58
2023/03/09 10:19:00;;;;;;;34.58;8.88;;;;;;;;;;5084886;28;20115;-58
2023/03/09 10:21:37;;;;;;;20.42;5.18;;;;;;;;;;5083793;28;20614;-58
2023/03/09 10:24:23;;;;;;;21.23;6.65;;;;;;;;;;5084643;28;20402;-57
2023/03/09 10:26:53;;;;;;;24.38;5.57;;;;;;;;;;5085026;28;20539;-58
2023/03/09 10:29:38;;;;;;;26.58;6.82;;;;;;;;;;5083410;28;20036;-58
2023/03/09 10:32:07;;;;;;;32.17;8.38;;;;;;;;;;5084374;28;20538;-57
2023/03/09 10:34:37;;;;;;;25.73;6.35;;;;;;;;;;5084764;28;20135;-57
2023/03/09 10:37:05;;;;;;;19.92;5.25;;;;;;;;;;5084273;28;20144;-58
2023/03/09 10:39:34;;;;;;;17.52;6.07;;;;;;;;;;5085280;28;20040;-57
2023/03/09 10:42:06;;;;;;;17.80;4.82;;;;;;;;;;5083962;28;20048;-58
2023/03/09 10:44:33;;;;;;;21.05;4.80;;;;;;;;;;5084789;28;20079;-57
2023/03/09 10:47:00;;;;;;;26.63;7.93;;;;;;;;;;5083842;28;20041;-58
2023/03/09 10:49:27;;;;;;;23.80;4.93;;;;;;;;;;5084876;28;20483;-57
2023/03/09 10:52:02;;;;;;;21.30;6.65;;;;;;;;;;5083458;28;20048;-57
2023/03/09 10:54:38;;;;;;;19.50;6.13;;;;;;;;;;5084547;28;20047;-57
2023/03/09 10:57:39;;;;;;;20.35;5.07;;;;;;;;;;5084929;28;20059;-57
2023/03/09 11:00:14;;;;;;;20.17;5.10;;;;;;;;;;5060494;28;20135;-57
2023/03/09 11:02:50;;;;;;;29.75;6.70;;;;;;;;;;5077367;27;20539;-58
2023/03/09 11:05:20;;;;;;;24.50;5.80;;;;;;;;;;5082286;28;20040;-57
2023/03/09 11:07:53;;;;;;;26.95;5.55;;;;;;;;;;5082058;28;20070;-58
2023/03/09 11:10:26;;;;;;;29.45;8.55;;;;;;;;;;5083392;28;20557;-58
2023/03/09 11:12:52;;;;;;;25.33;7.53;;;;;;;;;;5083612;28;20120;-57
2023/03/09 11:15:18;;;;;;;19.02;7.70;;;;;;;;;;5084267;28;20079;-57
2023/03/09 11:17:48;;;;;;;25.58;5.75;;;;;;;;;;5081868;28;20526;-57
2023/03/09 11:20:14;;;;;;;25.42;6.47;;;;;;;;;;5081760;28;20032;-58
2023/03/09 11:22:44;;;;;;;16.25;4.88;;;;;;;;;;5084546;28;20071;-57
2023/03/09 11:25:14;;;;;;;20.20;4.75;;;;;;;;;;5081334;28;20597;-58
2023/03/09 11:27:42;;;;;;;18.42;5.95;;;;;;;;;;5083205;28;21076;-57
2023/03/09 11:30:14;;;;;;;16.77;4.63;;;;;;;;;;5081987;28;20044;-58
2023/03/09 11:32:40;;;;;;;15.48;5.03;;;;;;;;;;5084058;28;20076;-58
2023/03/09 11:35:06;;;;;;;18.27;6.95;;;;;;;;;;5082993;27;20044;-58
2023/03/09 11:37:44;;;;;;;20.75;5.82;;;;;;;;;;5084698;28;20042;-57
2023/03/09 11:40:10;;;;;;;15.18;5.35;;;;;;;;;;5083098;28;20032;-58
2023/03/09 11:42:42;;;;;;;17.25;6.57;;;;;;;;;;5084533;28;20587;-57
2023/03/09 11:45:14;;;;;;;27.35;5.63;;;;;;;;;;5082467;28;20037;-58
2023/03/09 11:47:43;;;;;;;15.45;6.30;;;;;;;;;;5084578;28;20155;-58
2023/03/09 11:50:14;;;;;;;38.10;7.22;;;;;;;;;;5080576;28;20467;-57
2023/03/09 11:52:45;;;;;;;21.80;5.88;;;;;;;;;;5083219;28;20040;-57
2023/03/09 11:55:19;;;;;;;19.50;5.40;;;;;;;;;;5082041;28;20594;-57
2023/03/09 11:57:47;;;;;;;15.43;4.50;;;;;;;;;;5083667;28;20040;-57
2023/03/09 12:00:15;;;;;;;17.83;4.43;;;;;;;;;;5081573;28;20123;-57
2023/03/09 12:02:54;;;;;;;13.38;5.32;;;;;;;;;;5082134;28;20098;-58
2023/03/09 12:05:20;;;;;;;18.83;5.03;;;;;;;;;;5083143;28;20749;-57
2023/03/09 12:07:46;;;;;;;14.20;5.50;;;;;;;;;;5083988;28;20503;-58
2023/03/09 12:10:18;;;;;;;20.90;6.28;;;;;;;;;;5082151;28;20036;-57
2023/03/09 12:12:57;;;;;;;13.38;4.45;;;;;;;;;;5082738;28;20051;-58
2023/03/09 12:15:36;;;;;;;20.08;6.32;;;;;;;;;;5082864;28;20086;-57
2023/03/09 12:18:33;;;;;;;14.65;4.43;;;;;;;;;;5081315;28;20036;-57
2023/03/09 12:21:25;;;;;;;15.30;3.55;;;;;;;;;;5081958;28;20040;-57
2023/03/09 12:24:19;;;;;;;16.25;4.53;;;;;;;;;;5077583;28;20048;-58
2023/03/09 12:26:54;;;;;;;14.57;3.85;;;;;;;;;;5082313;28;20044;-57
2023/03/09 12:29:23;;;;;;;11.77;3.97;;;;;;;;;;5080606;28;20163;-57
2023/03/09 12:32:08;;;;;;;14.38;5.05;;;;;;;;;;5084563;28;20044;-57
2023/03/09 12:34:39;;;;;;;12.68;3.03;;;;;;;;;;5084467;28;20041;-57
2023/03/09 12:37:24;;;;;;;13.63;3.97;;;;;;;;;;5083147;28;20044;-57
2023/03/09 12:39:57;;;;;;;20.40;5.25;;;;;;;;;;5087582;28;20051;-57
2023/03/09 12:42:26;;;;;;;20.08;3.25;;;;;;;;;;5087180;28;20110;-57
2023/03/09 12:44:53;;;;;;;11.32;3.60;;;;;;;;;;5086224;28;20123;-58
2023/03/09 12:47:36;;;;;;;8.68;3.45;;;;;;;;;;5086499;28;20522;-57
2023/03/09 12:50:03;;;;;;;19.55;5.03;;;;;;;;;;5085394;28;20106;-57
2023/03/09 12:52:29;;;;;;;12.93;4.50;;;;;;;;;;5086382;28;20068;-57
2023/03/09 12:54:57;;;;;;;19.30;4.82;;;;;;;;;;5086038;28;20046;-57
2023/03/09 12:57:23;;;;;;;11.65;4.47;;;;;;;;;;5087012;28;20071;-57
2023/03/09 12:59:50;;;;;;;15.25;6.45;;;;;;;;;;5083136;27;20032;-58
2023/03/09 13:02:31;;;;;;;13.98;4.20;;;;;;;;;;5084173;28;20048;-57
2023/03/09 13:05:22;;;;;;;13.27;3.95;;;;;;;;;;5085002;28;20071;-57
2023/03/09 13:07:53;;;;;;;14.05;4.30;;;;;;;;;;5100070;27;20143;-57
2023/03/09 13:10:24;;;;;;;14.45;4.75;;;;;;;;;;5086615;28;20779;-57
2023/03/09 13:12:54;;;;;;;13.73;4.10;;;;;;;;;;5085425;28;20044;-57
2023/03/09 13:15:27;;;;;;;9.40;3.35;;;;;;;;;;5085543;28;20105;-58
2023/03/09 13:18:04;;;;;;;12.25;4.47;;;;;;;;;;5085022;28;20491;-57
2023/03/09 13:20:35;;;;;;;9.48;3.83;;;;;;;;;;5086972;28;20123;-57
2023/03/09 13:23:06;;;;;;;15.52;3.80;;;;;;;;;;5084438;28;20044;-58
2023/03/09 13:25:40;;;;;;;12.27;3.03;;;;;;;;;;5086508;28;20048;-57
2023/03/09 13:28:13;;;;;;;13.80;3.70;;;;;;;;;;5085457;28;20078;-58
2023/03/09 13:30:42;;;;;;;8.70;3.00;;;;;;;;;;5083775;28;20365;-57
2023/03/09 13:33:14;;;;;;;9.15;2.72;;;;;;;;;;5084867;28;20047;-57
2023/03/09 13:35:48;;;;;;;9.23;3.10;;;;;;;;;;5086005;28;20051;-57
2023/03/09 13:38:21;;;;;;;10.10;3.25;;;;;;;;;;5084290;28;20047;-57
2023/03/09 13:40:58;;;;;;;8.10;3.10;;;;;;;;;;5084886;28;20039;-57
2023/03/09 13:43:31;;;;;;;8.73;2.90;;;;;;;;;;5083501;28;20041;-57
2023/03/09 13:46:21;;;;;;;16.50;4.63;;;;;;;;;;5084995;28;20048;-57
2023/03/09 13:48:48;;;;;;;11.65;3.08;;;;;;;;;;5077898;28;20522;-57
2023/03/09 13:51:38;;;;;;;17.00;3.58;;;;;;;;;;5082170;28;20070;-57
2023/03/09 13:54:04;;;;;;;15.05;4.18;;;;;;;;;;5078074;28;20095;-57
2023/03/09 13:56:31;;;;;;;10.55;3.80;;;;;;;;;;5082819;28;20102;-56
2023/03/09 13:58:58;;;;;;;13.70;4.93;;;;;;;;;;5082831;28;20036;-56
2023/03/09 14:01:24;;;;;;;15.07;5.15;;;;;;;;;;5085525;28;20045;-57
2023/03/09 14:03:52;;;;;;;13.98;4.55;;;;;;;;;;5085213;28;20047;-57
2023/03/09 14:06:28;;;;;;;12.43;3.80;;;;;;;;;;5084377;28;20064;-57
2023/03/09 14:08:55;;;;;;;17.13;3.60;;;;;;;;;;5083347;28;20052;-57
2023/03/09 14:11:23;;;;;;;12.35;5.47;;;;;;;;;;5084563;28;20029;-57
2023/03/09 14:13:57;;;;;;;8.18;3.30;;;;;;;;;;5083223;28;20704;-57
2023/03/09 14:16:23;;;;;;;7.65;2.47;;;;;;;;;;5084989;28;20701;-57
2023/03/09 14:18:51;;;;;;;9.50;3.67;;;;;;;;;;5085029;28;20080;-57
2023/03/09 14:21:27;;;;;;;11.82;2.92;;;;;;;;;;5086254;28;20048;-57
2023/03/09 14:24:09;;;;;;;6.10;1.98;;;;;;;;;;5084906;28;20505;-57
2023/03/09 14:26:36;;;;;;;8.75;2.97;;;;;;;;;;5086151;28;20040;-57
2023/03/09 14:29:07;;;;;;;7.00;2.20;;;;;;;;;;5084145;28;20047;-57
2023/03/09 14:31:34;;;;;;;8.05;2.35;;;;;;;;;;5083866;28;20123;-57
2023/03/09 14:34:05;;;;;;;6.80;3.03;;;;;;;;;;5083908;28;20049;-57
2023/03/09 14:36:39;;;;;;;8.73;2.47;;;;;;;;;;5085441;28;20040;-57
2023/03/09 14:39:25;;;;;;;3.60;2.35;;;;;;;;;;5082654;28;20502;-57
2023/03/09 14:42:10;;;;;;;3.10;1.80;;;;;;;;;;5084491;28;20122;-57